Ecokeeper — SVTY — position and weather

sailwx.info

Track history (hours):
 
Tides and Currents Weather Stations Pressure Air Temp Water Temp Dewpoint Dewpoint Depression Visibility Wind Speed Wind Dir Waves Ship Positions

Ecokeeper

Last reported at 2014-Oct-02 11:34 UTC. Time now 2014-Oct-02 12:33 UTC.
Position N 36°25' E 025°29'.

Length 90 m; draft 4.5 m.

Type: Tanker. MMSI: 240689000.

Date/timePositionNaut miles runAvg speedWind from/ knotsBaromVisibWave heightAir tempDewpointWater temp
2014-Oct-02 11:34N 36°25' E 025°29'0 0.0
2014-Oct-02 10:31N 36°25' E 025°29'0 0.0
2014-Oct-02 09:33N 36°25' E 025°29'0 0.0
2014-Oct-02 08:34N 36°25' E 025°29'0 0.0
2014-Oct-02 07:33N 36°25' E 025°29'0 0.0
2014-Oct-02 06:33N 36°25' E 025°29'0 0.0
2014-Oct-02 05:33N 36°25' E 025°29'0 0.0
2014-Oct-02 04:33N 36°25' E 025°29'0 0.0
2014-Oct-02 03:33N 36°25' E 025°29'0 0.0
2014-Oct-02 02:33N 36°25' E 025°29'0 0.0
2014-Oct-02 01:27N 36°25' E 025°29'0 0.0
2014-Oct-02 00:33N 36°25' E 025°29'0 0.0
2014-Oct-01 23:33N 36°25' E 025°29'0 0.0
2014-Oct-01 22:33N 36°25' E 025°29'0 0.0
2014-Oct-01 21:33N 36°25' E 025°29'0 0.0
2014-Oct-01 20:33N 36°25' E 025°29'0 0.0
2014-Oct-01 19:33N 36°25' E 025°29'0 0.0
2014-Oct-01 18:33N 36°25' E 025°29'0 0.0
2014-Oct-01 17:33N 36°25' E 025°29'0 0.0
2014-Oct-01 16:33N 36°25' E 025°29'0 0.0
2014-Oct-01 15:33N 36°25' E 025°29'0 0.0
2014-Oct-01 14:33N 36°25' E 025°29'0 0.0
2014-Oct-01 13:33N 36°25' E 025°29'0 0.0
2014-Oct-01 12:33N 36°25' E 025°29'0 0.0
2014-Oct-01 11:33N 36°25' E 025°29'0 0.0
2014-Oct-01 10:33N 36°25' E 025°29'0 0.0
2014-Oct-01 09:33N 36°25' E 025°29'0 0.0
2014-Oct-01 08:33N 36°25' E 025°29'0 0.0
2014-Oct-01 07:33N 36°25' E 025°29'0 0.1
2014-Oct-01 06:33N 36°25' E 025°29'0 0.0
2014-Oct-01 05:33N 36°25' E 025°29'0 0.0
2014-Oct-01 04:33N 36°25' E 025°29'3 2.9
2014-Oct-01 03:33N 36°28' E 025°29'10 9.6
2014-Oct-01 02:33N 36°31' E 025°18'1010.1
2014-Oct-01 01:33N 36°32' E 025°05'1010.1
2014-Oct-01 00:33N 36°33' E 024°53'1010.1
2014-Sep-30 23:33N 36°42' E 024°45'10 9.8
2014-Sep-30 22:33N 36°51' E 024°41'9 9.5
2014-Sep-30 21:33N 36°57' E 024°32'10 9.4
2014-Sep-30 20:31N 37°03' E 024°22'41 9.7
2014-Sep-30 16:17N 37°33' E 023°47'7 9.7
2014-Sep-30 15:33N 37°39' E 023°43'10 9.8
2014-Sep-30 14:33N 37°48' E 023°38'9 9.4
2014-Sep-30 13:33N 37°57' E 023°34'0 0.5
2014-Sep-30 12:33N 37°57' E 023°34'0 0.0
2014-Sep-30 11:33N 37°57' E 023°34'0 0.0
2014-Sep-30 10:33N 37°57' E 023°34'0 0.0
2014-Sep-30 09:33N 37°57' E 023°34'0 0.0
2014-Sep-30 08:33N 37°57' E 023°34'0 0.0
2014-Sep-30 07:33N 37°57' E 023°34'  
2014-Sep-28 03:05N 37°57' E 023°34'1 2.5
2014-Sep-28 02:33N 37°56' E 023°35'5 5.2
2014-Sep-28 01:33N 37°51' E 023°32'0 0.0
2014-Sep-28 00:33N 37°51' E 023°32'0 0.0
2014-Sep-27 23:33N 37°51' E 023°32'0 0.0
2014-Sep-27 22:33N 37°51' E 023°32'0 0.0
2014-Sep-27 21:33N 37°51' E 023°32'0 0.0
2014-Sep-27 20:33N 37°51' E 023°32'0 0.0
2014-Sep-27 19:33N 37°51' E 023°32'0 0.0
2014-Sep-27 18:33N 37°51' E 023°32'0 0.0
2014-Sep-27 17:33N 37°51' E 023°32'0 0.0
2014-Sep-27 16:33N 37°51' E 023°32'0 0.3
2014-Sep-27 15:33N 37°51' E 023°32'6 6.4
2014-Sep-27 14:33N 37°57' E 023°34'0 0.1
2014-Sep-27 13:33N 37°57' E 023°34'0 0.0
2014-Sep-26 18:34N 37°57' E 023°34'3 3.1
2014-Sep-26 17:34N 37°54' E 023°33'4 3.6
2014-Sep-26 16:33N 37°51' E 023°30'0 0.0
2014-Sep-26 15:34N 37°51' E 023°30'0 0.0
2014-Sep-26 14:33N 37°51' E 023°30'0 0.1
2014-Sep-26 13:33N 37°51' E 023°30'0 0.1
2014-Sep-26 12:33N 37°51' E 023°30'0 0.1
2014-Sep-26 11:33N 37°51' E 023°30'0 0.5
2014-Sep-26 10:34N 37°51' E 023°31'6 6.1
2014-Sep-26 09:34N 37°57' E 023°34'0 0.0
2014-Sep-25 17:33N 37°57' E 023°34'7 6.9
2014-Sep-25 16:33N 37°50' E 023°31'0 0.3
2014-Sep-25 15:33N 37°50' E 023°31'0 0.0
2014-Sep-25 14:33N 37°50' E 023°31'0 0.2
2014-Sep-25 13:33N 37°50' E 023°31'0 0.1
2014-Sep-25 12:33N 37°50' E 023°31'0 0.0
2014-Sep-25 11:33N 37°50' E 023°31'0 0.0
2014-Sep-25 10:33N 37°50' E 023°31'0 0.0
2014-Sep-25 09:33N 37°50' E 023°31'0 0.0
2014-Sep-25 08:33N 37°50' E 023°31'0 0.1
2014-Sep-25 07:33N 37°50' E 023°31'0 0.0
2014-Sep-25 06:33N 37°50' E 023°31'5 4.9
2014-Sep-25 05:33N 37°55' E 023°34'2 0.1
2014-Sep-24 12:18N 37°57' E 023°34'4 5.0
2014-Sep-24 11:33N 37°53' E 023°33'1 1.3
2014-Sep-24 10:33N 37°52' E 023°32'0 0.1
2014-Sep-24 09:33N 37°52' E 023°32'0 0.0
2014-Sep-24 08:33N 37°52' E 023°32'0 0.0
2014-Sep-24 07:33N 37°52' E 023°32'4 3.7
2014-Sep-24 06:33N 37°55' E 023°34'2 1.5
2014-Sep-24 05:33N 37°57' E 023°34'0 0.0
2014-Sep-24 04:33N 37°57' E 023°34'0 0.0
2014-Sep-24 03:33N 37°57' E 023°34'0 0.0
2014-Sep-24 02:33N 37°57' E 023°34'0 0.0
2014-Sep-24 01:33N 37°57' E 023°34'0 0.0
2014-Sep-24 00:33N 37°57' E 023°34'0 0.0
2014-Sep-23 23:33N 37°57' E 023°34'0 0.0
2014-Sep-23 22:33N 37°57' E 023°34'0 0.0
2014-Sep-23 21:33N 37°57' E 023°34'0 0.0
2014-Sep-23 20:33N 37°57' E 023°34'1 0.6
2014-Sep-23 19:33N 37°57' E 023°34'6 6.2
2014-Sep-23 18:33N 37°51' E 023°32'0 0.0
2014-Sep-23 17:33N 37°51' E 023°32'0 0.0
2014-Sep-23 16:33N 37°51' E 023°32'0 0.0
2014-Sep-23 15:33N 37°51' E 023°32'0 0.0
2014-Sep-23 14:33N 37°51' E 023°32'0 0.0
2014-Sep-23 13:33N 37°51' E 023°32'0 0.0
2014-Sep-23 12:33N 37°51' E 023°32'0 0.1
2014-Sep-23 11:33N 37°51' E 023°32'0 0.1
2014-Sep-23 10:33N 37°51' E 023°32'0 0.2
2014-Sep-23 09:33N 37°51' E 023°32'0 0.1
2014-Sep-23 08:33N 37°51' E 023°32'0 0.1
2014-Sep-23 07:33N 37°51' E 023°32'0 0.2
2014-Sep-23 06:33N 37°51' E 023°32'0 0.0
2014-Sep-23 05:33N 37°51' E 023°32'6 5.7
2014-Sep-23 04:33N 37°57' E 023°35'  
Track history (hours):
 
Tides and Currents Weather Stations Pressure Air Temp Water Temp Dewpoint Dewpoint Depression Visibility Wind Speed Wind Dir Waves Ship Positions

Ecokeeper

Last reported at 2014-Oct-02 11:34 UTC. Time now 2014-Oct-02 12:33 UTC.
Position N 36°25' E 025°29'.

Length 90 m; draft 4.5 m.

Type: Tanker. MMSI: 240689000.

Date/timePositionNaut miles runAvg speedWind from/ knotsBaromVisibWave heightAir tempDewpointWater temp
2014-Oct-02 11:34N 36°25' E 025°29'0 0.0
2014-Oct-02 10:31N 36°25' E 025°29'0 0.0
2014-Oct-02 09:33N 36°25' E 025°29'0 0.0
2014-Oct-02 08:34N 36°25' E 025°29'0 0.0
2014-Oct-02 07:33N 36°25' E 025°29'0 0.0
2014-Oct-02 06:33N 36°25' E 025°29'0 0.0
2014-Oct-02 05:33N 36°25' E 025°29'0 0.0
2014-Oct-02 04:33N 36°25' E 025°29'0 0.0
2014-Oct-02 03:33N 36°25' E 025°29'0 0.0
2014-Oct-02 02:33N 36°25' E 025°29'0 0.0
2014-Oct-02 01:27N 36°25' E 025°29'0 0.0
2014-Oct-02 00:33N 36°25' E 025°29'0 0.0
2014-Oct-01 23:33N 36°25' E 025°29'0 0.0
2014-Oct-01 22:33N 36°25' E 025°29'0 0.0
2014-Oct-01 21:33N 36°25' E 025°29'0 0.0
2014-Oct-01 20:33N 36°25' E 025°29'0 0.0
2014-Oct-01 19:33N 36°25' E 025°29'0 0.0
2014-Oct-01 18:33N 36°25' E 025°29'0 0.0
2014-Oct-01 17:33N 36°25' E 025°29'0 0.0
2014-Oct-01 16:33N 36°25' E 025°29'0 0.0
2014-Oct-01 15:33N 36°25' E 025°29'0 0.0
2014-Oct-01 14:33N 36°25' E 025°29'0 0.0
2014-Oct-01 13:33N 36°25' E 025°29'0 0.0
2014-Oct-01 12:33N 36°25' E 025°29'0 0.0
2014-Oct-01 11:33N 36°25' E 025°29'0 0.0
2014-Oct-01 10:33N 36°25' E 025°29'0 0.0
2014-Oct-01 09:33N 36°25' E 025°29'0 0.0
2014-Oct-01 08:33N 36°25' E 025°29'0 0.0
2014-Oct-01 07:33N 36°25' E 025°29'0 0.1
2014-Oct-01 06:33N 36°25' E 025°29'0 0.0
2014-Oct-01 05:33N 36°25' E 025°29'0 0.0
2014-Oct-01 04:33N 36°25' E 025°29'3 2.9
2014-Oct-01 03:33N 36°28' E 025°29'10 9.6
2014-Oct-01 02:33N 36°31' E 025°18'1010.1
2014-Oct-01 01:33N 36°32' E 025°05'1010.1
2014-Oct-01 00:33N 36°33' E 024°53'1010.1
2014-Sep-30 23:33N 36°42' E 024°45'10 9.8
2014-Sep-30 22:33N 36°51' E 024°41'9 9.5
2014-Sep-30 21:33N 36°57' E 024°32'10 9.4
2014-Sep-30 20:31N 37°03' E 024°22'41 9.7
2014-Sep-30 16:17N 37°33' E 023°47'7 9.7
2014-Sep-30 15:33N 37°39' E 023°43'10 9.8
2014-Sep-30 14:33N 37°48' E 023°38'9 9.4
2014-Sep-30 13:33N 37°57' E 023°34'0 0.5
2014-Sep-30 12:33N 37°57' E 023°34'0 0.0
2014-Sep-30 11:33N 37°57' E 023°34'0 0.0
2014-Sep-30 10:33N 37°57' E 023°34'0 0.0
2014-Sep-30 09:33N 37°57' E 023°34'0 0.0
2014-Sep-30 08:33N 37°57' E 023°34'0 0.0
2014-Sep-30 07:33N 37°57' E 023°34'  
2014-Sep-28 03:05N 37°57' E 023°34'1 2.5
2014-Sep-28 02:33N 37°56' E 023°35'5 5.2
2014-Sep-28 01:33N 37°51' E 023°32'0 0.0
2014-Sep-28 00:33N 37°51' E 023°32'0 0.0
2014-Sep-27 23:33N 37°51' E 023°32'0 0.0
2014-Sep-27 22:33N 37°51' E 023°32'0 0.0
2014-Sep-27 21:33N 37°51' E 023°32'0 0.0
2014-Sep-27 20:33N 37°51' E 023°32'0 0.0
2014-Sep-27 19:33N 37°51' E 023°32'0 0.0
2014-Sep-27 18:33N 37°51' E 023°32'0 0.0
2014-Sep-27 17:33N 37°51' E 023°32'0 0.0
2014-Sep-27 16:33N 37°51' E 023°32'0 0.3
2014-Sep-27 15:33N 37°51' E 023°32'6 6.4
2014-Sep-27 14:33N 37°57' E 023°34'0 0.1
2014-Sep-27 13:33N 37°57' E 023°34'0 0.0
2014-Sep-26 18:34N 37°57' E 023°34'3 3.1
2014-Sep-26 17:34N 37°54' E 023°33'4 3.6
2014-Sep-26 16:33N 37°51' E 023°30'0 0.0
2014-Sep-26 15:34N 37°51' E 023°30'0 0.0
2014-Sep-26 14:33N 37°51' E 023°30'0 0.1
2014-Sep-26 13:33N 37°51' E 023°30'0 0.1
2014-Sep-26 12:33N 37°51' E 023°30'0 0.1
2014-Sep-26 11:33N 37°51' E 023°30'0 0.5
2014-Sep-26 10:34N 37°51' E 023°31'6 6.1
2014-Sep-26 09:34N 37°57' E 023°34'0 0.0
2014-Sep-25 17:33N 37°57' E 023°34'7 6.9
2014-Sep-25 16:33N 37°50' E 023°31'0 0.3
2014-Sep-25 15:33N 37°50' E 023°31'0 0.0
2014-Sep-25 14:33N 37°50' E 023°31'0 0.2
2014-Sep-25 13:33N 37°50' E 023°31'0 0.1
2014-Sep-25 12:33N 37°50' E 023°31'0 0.0
2014-Sep-25 11:33N 37°50' E 023°31'0 0.0
2014-Sep-25 10:33N 37°50' E 023°31'0 0.0
2014-Sep-25 09:33N 37°50' E 023°31'0 0.0
2014-Sep-25 08:33N 37°50' E 023°31'0 0.1
2014-Sep-25 07:33N 37°50' E 023°31'0 0.0
2014-Sep-25 06:33N 37°50' E 023°31'5 4.9
2014-Sep-25 05:33N 37°55' E 023°34'2 0.1
2014-Sep-24 12:18N 37°57' E 023°34'4 5.0
2014-Sep-24 11:33N 37°53' E 023°33'1 1.3
2014-Sep-24 10:33N 37°52' E 023°32'0 0.1
2014-Sep-24 09:33N 37°52' E 023°32'0 0.0
2014-Sep-24 08:33N 37°52' E 023°32'0 0.0
2014-Sep-24 07:33N 37°52' E 023°32'4 3.7
2014-Sep-24 06:33N 37°55' E 023°34'2 1.5
2014-Sep-24 05:33N 37°57' E 023°34'0 0.0
2014-Sep-24 04:33N 37°57' E 023°34'0 0.0
2014-Sep-24 03:33N 37°57' E 023°34'0 0.0
2014-Sep-24 02:33N 37°57' E 023°34'0 0.0
2014-Sep-24 01:33N 37°57' E 023°34'0 0.0
2014-Sep-24 00:33N 37°57' E 023°34'0 0.0
2014-Sep-23 23:33N 37°57' E 023°34'0 0.0
2014-Sep-23 22:33N 37°57' E 023°34'0 0.0
2014-Sep-23 21:33N 37°57' E 023°34'0 0.0
2014-Sep-23 20:33N 37°57' E 023°34'1 0.6
2014-Sep-23 19:33N 37°57' E 023°34'6 6.2
2014-Sep-23 18:33N 37°51' E 023°32'0 0.0
2014-Sep-23 17:33N 37°51' E 023°32'0 0.0
2014-Sep-23 16:33N 37°51' E 023°32'0 0.0
2014-Sep-23 15:33N 37°51' E 023°32'0 0.0
2014-Sep-23 14:33N 37°51' E 023°32'0 0.0
2014-Sep-23 13:33N 37°51' E 023°32'0 0.0
2014-Sep-23 12:33N 37°51' E 023°32'0 0.1
2014-Sep-23 11:33N 37°51' E 023°32'0 0.1
2014-Sep-23 10:33N 37°51' E 023°32'0 0.2
2014-Sep-23 09:33N 37°51' E 023°32'0 0.1
2014-Sep-23 08:33N 37°51' E 023°32'0 0.1
2014-Sep-23 07:33N 37°51' E 023°32'0 0.2
2014-Sep-23 06:33N 37°51' E 023°32'0 0.0
2014-Sep-23 05:33N 37°51' E 023°32'6 5.7
2014-Sep-23 04:33N 37°57' E 023°35'  

Dump ship's entire track history